createdAt,value
2023-09-26T00:00:49.560Z,98.10
2023-09-26T00:01:49.459Z,98.10
2023-09-26T00:02:49.419Z,98.10
2023-09-26T00:03:49.683Z,98.20
2023-09-26T00:04:49.629Z,98.20
2023-09-26T00:05:49.399Z,98.10
2023-09-26T00:06:49.453Z,98.10
2023-09-26T00:07:49.828Z,98.10
2023-09-26T00:08:49.376Z,98.10
2023-09-26T00:09:49.382Z,98.10
2023-09-26T00:10:49.446Z,98.10
2023-09-26T00:11:49.426Z,98.10
2023-09-26T00:12:49.551Z,98.20
2023-09-26T00:13:49.545Z,98.30
2023-09-26T00:14:49.262Z,98.40
2023-09-26T00:15:49.298Z,98.50
2023-09-26T00:16:49.321Z,98.50
2023-09-26T00:17:49.307Z,98.61
2023-09-26T00:18:49.414Z,98.61
2023-09-26T00:19:58.516Z,98.61
2023-09-26T00:20:49.319Z,98.61
2023-09-26T00:21:49.196Z,98.61
2023-09-26T00:22:49.381Z,98.50
2023-09-26T00:23:49.433Z,98.50
2023-09-26T00:24:49.231Z,98.50
2023-09-26T00:25:49.253Z,98.61
2023-09-26T00:26:49.181Z,98.61
2023-09-26T00:27:49.251Z,98.61
2023-09-26T00:28:49.083Z,98.71
2023-09-26T00:29:49.146Z,98.71
2023-09-26T00:30:49.185Z,98.81
2023-09-26T00:31:49.328Z,98.71
2023-09-26T00:32:49.075Z,98.71
2023-09-26T00:33:49.427Z,98.61
2023-09-26T00:34:49.012Z,98.50
2023-09-26T00:35:49.149Z,98.50
2023-09-26T00:36:49.201Z,98.40
2023-09-26T00:37:49.255Z,98.40
2023-09-26T00:38:48.953Z,98.30
2023-09-26T00:39:49.027Z,98.30
2023-09-26T00:40:48.996Z,98.30
2023-09-26T00:41:50.011Z,98.30
2023-09-26T00:42:49.153Z,98.30
2023-09-26T00:43:49.157Z,98.30
2023-09-26T00:44:48.988Z,98.30
2023-09-26T00:45:48.977Z,98.30
2023-09-26T00:46:49.012Z,98.30
2023-09-26T00:47:48.918Z,98.20
2023-09-26T00:48:48.855Z,98.20
2023-09-26T00:49:52.738Z,98.10
2023-09-26T00:50:48.805Z,98.10
2023-09-26T00:51:48.774Z,97.99
2023-09-26T00:52:48.694Z,97.99
2023-09-26T00:53:48.787Z,97.89
2023-09-26T00:54:48.739Z,97.94
2023-09-26T00:55:52.930Z,97.83
2023-09-26T00:56:48.938Z,97.83
2023-09-26T00:57:49.127Z,97.83
2023-09-26T00:58:48.767Z,97.83
2023-09-26T00:59:48.647Z,98.04
2023-09-26T01:00:48.999Z,98.04
2023-09-26T01:01:48.746Z,98.24
2023-09-26T01:02:48.768Z,98.35
2023-09-26T01:03:48.962Z,98.35
2023-09-26T01:04:48.682Z,98.45
2023-09-26T01:05:48.667Z,98.45
2023-09-26T01:06:48.984Z,98.45
2023-09-26T01:07:48.618Z,98.45
2023-09-26T01:08:48.692Z,98.45
2023-09-26T01:09:48.630Z,98.35
2023-09-26T01:10:48.565Z,98.35
2023-09-26T01:11:48.554Z,98.35
2023-09-26T01:12:48.926Z,98.35
2023-09-26T01:13:48.830Z,98.35
2023-09-26T01:14:48.684Z,98.35
2023-09-26T01:15:48.519Z,98.45
2023-09-26T01:16:48.629Z,98.45
2023-09-26T01:17:51.121Z,98.55
2023-09-26T01:18:48.505Z,98.55
2023-09-26T01:19:48.470Z,98.55
2023-09-26T01:20:48.727Z,98.55
2023-09-26T01:21:48.436Z,98.45
2023-09-26T01:22:48.574Z,98.45
2023-09-26T01:23:48.610Z,98.45
2023-09-26T01:24:48.425Z,98.55
2023-09-26T01:25:48.413Z,98.55
2023-09-26T01:26:48.414Z,98.55
2023-09-26T01:27:48.576Z,98.55
2023-09-26T01:28:48.323Z,98.55
2023-09-26T01:29:48.534Z,98.55
2023-09-26T01:30:48.458Z,98.45
2023-09-26T01:31:48.555Z,98.35
2023-09-26T01:32:48.453Z,98.35
2023-09-26T01:33:48.366Z,98.24
2023-09-26T01:34:48.268Z,98.24
2023-09-26T01:35:48.301Z,98.14
2023-09-26T01:36:48.303Z,98.14
2023-09-26T01:37:48.266Z,98.14
2023-09-26T01:38:48.287Z,98.19
2023-09-26T01:39:48.295Z,98.19
2023-09-26T01:40:48.269Z,98.19
2023-09-26T01:41:48.157Z,98.19
2023-09-26T01:42:48.432Z,98.19
2023-09-26T01:43:48.589Z,98.19
2023-09-26T01:44:48.378Z,98.19
2023-09-26T01:45:48.287Z,98.29
2023-09-26T01:46:48.125Z,98.29
2023-09-26T01:47:48.207Z,98.39
2023-09-26T01:48:48.124Z,98.39
2023-09-26T01:49:48.064Z,98.49
2023-09-26T01:50:48.160Z,98.49
2023-09-26T01:51:48.158Z,98.49
2023-09-26T01:52:48.284Z,98.49
2023-09-26T01:53:48.109Z,98.49
2023-09-26T01:54:48.140Z,98.49
2023-09-26T01:55:48.101Z,98.39
2023-09-26T01:56:47.979Z,98.39
2023-09-26T01:57:48.250Z,98.29
2023-09-26T01:58:48.211Z,98.29
2023-09-26T01:59:48.041Z,98.19
2023-09-26T02:00:48.065Z,98.08
2023-09-26T02:01:48.222Z,98.08
2023-09-26T02:02:48.079Z,97.98
2023-09-26T02:03:47.945Z,97.88
2023-09-26T02:04:47.857Z,97.88
2023-09-26T02:05:47.994Z,97.78
2023-09-26T02:06:47.903Z,97.67
2023-09-26T02:07:47.973Z,97.57
2023-09-26T02:08:47.914Z,97.52
2023-09-26T02:09:47.922Z,97.41
2023-09-26T02:10:47.787Z,97.31
2023-09-26T02:11:47.895Z,97.31
2023-09-26T02:12:47.899Z,97.21
2023-09-26T02:13:47.942Z,97.21
2023-09-26T02:14:47.950Z,97.21
2023-09-26T02:15:48.097Z,97.21
2023-09-26T02:16:47.870Z,97.21
2023-09-26T02:17:47.896Z,97.21
2023-09-26T02:18:47.687Z,97.21
2023-09-26T02:19:47.835Z,97.21
2023-09-26T02:20:47.676Z,97.31
2023-09-26T02:21:47.855Z,97.31
2023-09-26T02:22:47.849Z,97.31
2023-09-26T02:23:47.713Z,97.41
2023-09-26T02:24:47.814Z,97.41
2023-09-26T02:25:47.623Z,97.41
2023-09-26T02:26:47.607Z,97.41
2023-09-26T02:27:47.634Z,97.56
2023-09-26T02:28:47.658Z,97.56
2023-09-26T02:29:47.614Z,97.62
2023-09-26T02:30:47.749Z,97.66
2023-09-26T02:31:47.693Z,97.66
2023-09-26T02:32:47.861Z,97.66
2023-09-26T02:33:47.440Z,97.66
2023-09-26T02:34:47.468Z,97.66
2023-09-26T02:35:47.444Z,97.77
2023-09-26T02:36:47.686Z,97.77
2023-09-26T02:37:47.445Z,97.77
2023-09-26T02:38:47.614Z,97.87
2023-09-26T02:39:47.545Z,97.87
2023-09-26T02:40:47.501Z,97.87
2023-09-26T02:41:47.398Z,97.87
2023-09-26T02:42:47.811Z,97.87
2023-09-26T02:43:51.467Z,97.87
2023-09-26T02:44:47.477Z,97.97
2023-09-26T02:45:47.509Z,98.07
2023-09-26T02:46:47.383Z,98.18
2023-09-26T02:47:47.385Z,98.18
2023-09-26T02:48:47.377Z,98.18
2023-09-26T02:49:47.352Z,98.28
2023-09-26T02:50:47.544Z,98.28
2023-09-26T02:51:47.282Z,98.28
2023-09-26T02:52:47.277Z,98.28
2023-09-26T02:53:47.257Z,98.28
2023-09-26T02:54:47.477Z,98.38
2023-09-26T02:55:47.193Z,98.38
2023-09-26T02:56:47.184Z,98.38
2023-09-26T02:57:47.254Z,98.38
2023-09-26T02:58:47.257Z,98.49
2023-09-26T02:59:47.142Z,98.49
2023-09-26T03:00:47.267Z,98.49
2023-09-26T03:01:47.203Z,98.49
2023-09-26T03:02:47.885Z,98.53
2023-09-26T03:03:47.154Z,98.63
2023-09-26T03:04:47.225Z,98.63
2023-09-26T03:05:47.093Z,98.63
2023-09-26T03:06:47.274Z,98.74
2023-09-26T03:07:47.087Z,98.74
2023-09-26T03:08:46.982Z,98.74
2023-09-26T03:09:47.097Z,98.74
2023-09-26T03:10:47.243Z,98.83
2023-09-26T03:11:46.969Z,98.83
2023-09-26T03:12:47.022Z,98.83
2023-09-26T03:13:46.941Z,98.94
2023-09-26T03:14:47.022Z,98.94
2023-09-26T03:15:47.419Z,98.94
2023-09-26T03:16:46.929Z,98.94
2023-09-26T03:17:46.906Z,98.83
2023-09-26T03:18:46.853Z,98.83
2023-09-26T03:19:46.809Z,98.94
2023-09-26T03:20:47.239Z,98.94
2023-09-26T03:21:46.890Z,98.94
2023-09-26T03:22:46.968Z,98.94
2023-09-26T03:23:46.888Z,98.94
2023-09-26T03:24:47.014Z,98.94
2023-09-26T03:25:46.781Z,98.94
2023-09-26T03:26:46.863Z,98.94
2023-09-26T03:27:46.905Z,98.94
2023-09-26T03:28:46.809Z,99.04
2023-09-26T03:29:46.874Z,99.04
2023-09-26T03:30:47.022Z,99.15
2023-09-26T03:31:46.912Z,99.15
2023-09-26T03:32:46.894Z,99.15
2023-09-26T03:33:46.703Z,99.15
2023-09-26T03:34:46.847Z,99.15
2023-09-26T03:35:46.876Z,99.15
2023-09-26T03:36:46.752Z,99.15
2023-09-26T03:37:46.776Z,99.15
2023-09-26T03:38:46.787Z,99.25
2023-09-26T03:39:46.623Z,99.25
2023-09-26T03:40:46.797Z,99.25
2023-09-26T03:41:46.698Z,99.25
2023-09-26T03:42:46.656Z,99.25
2023-09-26T03:43:46.587Z,99.25
2023-09-26T03:44:46.755Z,99.25
2023-09-26T03:45:46.619Z,99.25
2023-09-26T03:46:46.608Z,99.25
2023-09-26T03:47:46.807Z,99.25
2023-09-26T03:48:46.514Z,99.25
2023-09-26T03:49:46.479Z,99.25
2023-09-26T03:50:46.565Z,99.25
2023-09-26T03:51:46.485Z,99.25
2023-09-26T03:52:46.571Z,99.25
2023-09-26T03:53:46.564Z,99.25
2023-09-26T03:54:46.585Z,99.25
2023-09-26T03:55:46.529Z,99.25
2023-09-26T03:56:46.537Z,99.15
2023-09-26T03:57:46.375Z,99.15
2023-09-26T03:58:46.501Z,99.15
2023-09-26T03:59:46.421Z,99.04
2023-09-26T04:00:46.500Z,99.15
2023-09-26T04:01:46.646Z,99.15
2023-09-26T04:02:46.578Z,99.04
2023-09-26T04:03:46.469Z,99.15
2023-09-26T04:04:46.348Z,99.15
2023-09-26T04:05:46.291Z,99.15
2023-09-26T04:06:46.407Z,99.15
2023-09-26T04:07:50.365Z,99.15
2023-09-26T04:08:47.304Z,99.15
2023-09-26T04:09:46.177Z,99.15
2023-09-26T04:10:46.289Z,99.15
2023-09-26T04:11:46.245Z,99.15
2023-09-26T04:12:46.186Z,99.09
2023-09-26T04:13:46.133Z,99.09
2023-09-26T04:14:46.123Z,99.09
2023-09-26T04:15:46.097Z,99.09
2023-09-26T04:16:46.091Z,99.09
2023-09-26T04:17:46.142Z,99.09
2023-09-26T04:18:46.116Z,99.09
2023-09-26T04:19:46.314Z,98.99
2023-09-26T04:20:46.048Z,98.99
2023-09-26T04:21:46.078Z,98.99
2023-09-26T04:22:46.011Z,98.99
2023-09-26T04:23:46.016Z,98.99
2023-09-26T04:24:46.074Z,98.99
2023-09-26T04:25:46.016Z,98.99
2023-09-26T04:26:45.969Z,98.99
2023-09-26T04:27:45.993Z,98.99
2023-09-26T04:28:45.955Z,98.99
2023-09-26T04:29:46.062Z,98.99
2023-09-26T04:30:45.922Z,98.99
2023-09-26T04:31:46.113Z,98.99
2023-09-26T04:32:45.897Z,98.99
2023-09-26T04:33:45.913Z,98.99
2023-09-26T04:34:47.418Z,99.09
2023-09-26T04:35:45.853Z,99.09
2023-09-26T04:36:45.884Z,99.19
2023-09-26T04:37:45.897Z,99.29
2023-09-26T04:38:45.848Z,99.29
2023-09-26T04:39:45.813Z,99.29
2023-09-26T04:40:45.799Z,99.29
2023-09-26T04:41:45.864Z,99.29
2023-09-26T04:42:45.758Z,99.29
2023-09-26T04:43:46.360Z,99.29
2023-09-26T04:44:46.060Z,99.29
2023-09-26T04:45:45.819Z,99.29
2023-09-26T04:46:46.454Z,99.29
2023-09-26T04:47:45.912Z,99.29
2023-09-26T04:48:46.121Z,99.29
2023-09-26T04:49:45.676Z,99.29
2023-09-26T04:50:45.659Z,99.29
2023-09-26T04:51:46.180Z,99.29
2023-09-26T04:52:45.686Z,99.29
2023-09-26T04:53:45.674Z,99.29
2023-09-26T04:54:45.689Z,99.19
2023-09-26T04:55:45.603Z,99.24
2023-09-26T04:56:45.603Z,99.24
2023-09-26T04:57:45.566Z,99.24
2023-09-26T04:58:45.550Z,99.24
2023-09-26T04:59:45.575Z,99.24
2023-09-26T05:00:45.529Z,99.24
2023-09-26T05:01:45.519Z,99.24
2023-09-26T05:02:45.589Z,99.24
2023-09-26T05:03:45.968Z,99.24
2023-09-26T05:04:45.490Z,99.34
2023-09-26T05:05:45.479Z,99.34
2023-09-26T05:06:45.470Z,99.34
2023-09-26T05:07:45.443Z,99.34
2023-09-26T05:08:45.434Z,99.34
2023-09-26T05:09:45.431Z,99.34
2023-09-26T05:10:45.419Z,99.34
2023-09-26T05:11:45.394Z,99.34
2023-09-26T05:12:45.370Z,99.34
2023-09-26T05:13:45.408Z,99.34
2023-09-26T05:14:45.523Z,99.44
2023-09-26T05:15:45.361Z,99.34
2023-09-26T05:16:45.542Z,99.34
2023-09-26T05:17:45.578Z,99.34
2023-09-26T05:18:45.737Z,99.44
2023-09-26T05:19:45.801Z,99.44
2023-09-26T05:20:45.408Z,99.44
2023-09-26T05:21:45.290Z,99.44
2023-09-26T05:22:45.325Z,99.54
2023-09-26T05:23:45.492Z,99.54
2023-09-26T05:24:45.354Z,99.54
2023-09-26T05:25:45.199Z,99.65
2023-09-26T05:26:45.212Z,99.75
2023-09-26T05:27:45.340Z,99.85
2023-09-26T05:28:45.186Z,99.85
2023-09-26T05:29:45.195Z,99.85
2023-09-26T05:30:45.246Z,99.85
2023-09-26T05:31:45.972Z,99.95
2023-09-26T05:32:46.136Z,99.95
2023-09-26T05:33:45.300Z,99.95
2023-09-26T05:34:45.181Z,99.85
2023-09-26T05:35:45.919Z,99.85
2023-09-26T05:36:45.156Z,99.85
2023-09-26T05:37:45.049Z,99.85
2023-09-26T05:38:45.167Z,99.85
2023-09-26T05:39:45.903Z,99.85
2023-09-26T05:40:45.069Z,99.85
2023-09-26T05:41:45.032Z,99.85
2023-09-26T05:42:45.072Z,99.85
2023-09-26T05:43:45.177Z,99.85
2023-09-26T05:44:45.012Z,99.85
2023-09-26T05:45:45.131Z,99.85
2023-09-26T05:46:45.324Z,99.85
2023-09-26T05:47:45.192Z,99.95
2023-09-26T05:48:44.983Z,99.95
2023-09-26T05:49:44.901Z,99.95
2023-09-26T05:50:44.905Z,99.95
2023-09-26T05:51:44.910Z,99.95
2023-09-26T05:52:45.067Z,99.95
2023-09-26T05:53:45.020Z,99.95
2023-09-26T05:54:45.034Z,99.95
2023-09-26T05:55:44.903Z,99.95
2023-09-26T05:56:44.871Z,99.99
2023-09-26T05:57:44.926Z,99.99
2023-09-26T05:58:44.859Z,99.99
2023-09-26T05:59:45.051Z,99.99
2023-09-26T06:00:44.828Z,99.95
2023-09-26T06:01:44.919Z,99.99
2023-09-26T06:02:44.950Z,99.99
2023-09-26T06:03:45.093Z,99.99
2023-09-26T06:04:45.021Z,99.99
2023-09-26T06:05:44.927Z,99.99
2023-09-26T06:06:44.812Z,99.99
2023-09-26T06:07:44.718Z,99.99
2023-09-26T06:08:44.657Z,99.99
2023-09-26T06:10:01.038Z,99.99
2023-09-26T06:10:45.771Z,99.99
2023-09-26T06:11:44.697Z,99.99
2023-09-26T06:12:44.738Z,99.99
2023-09-26T06:13:44.600Z,99.99
2023-09-26T06:14:45.313Z,99.99
2023-09-26T06:15:44.715Z,99.99
2023-09-26T06:16:44.805Z,99.99
2023-09-26T06:17:44.637Z,99.99
2023-09-26T06:18:44.621Z,99.99
2023-09-26T06:19:44.610Z,99.99
2023-09-26T06:20:44.566Z,99.99
2023-09-26T06:21:44.777Z,99.99
2023-09-26T06:22:44.610Z,99.99
2023-09-26T06:23:44.651Z,99.99
2023-09-26T06:24:44.553Z,99.99
2023-09-26T06:25:55.912Z,99.99
2023-09-26T06:26:45.655Z,99.99
2023-09-26T06:27:44.599Z,99.99
2023-09-26T06:28:44.522Z,99.99
2023-09-26T06:29:44.416Z,99.99
2023-09-26T06:30:44.483Z,99.99
2023-09-26T06:31:44.561Z,99.99
2023-09-26T06:32:44.481Z,99.99
2023-09-26T06:33:44.551Z,99.99
2023-09-26T06:34:44.384Z,99.99
2023-09-26T06:35:44.482Z,99.99
2023-09-26T06:36:44.530Z,99.99
2023-09-26T06:37:44.326Z,99.99
2023-09-26T06:38:44.337Z,99.99
2023-09-26T06:39:44.500Z,99.99
2023-09-26T06:40:44.356Z,99.99
2023-09-26T06:41:44.312Z,99.99
2023-09-26T06:42:44.288Z,99.99
2023-09-26T06:43:44.367Z,99.99
2023-09-26T06:44:44.203Z,99.99
2023-09-26T06:45:44.329Z,99.99
2023-09-26T06:46:44.398Z,99.99
2023-09-26T06:47:44.334Z,99.99
2023-09-26T06:48:44.256Z,99.99
2023-09-26T06:49:44.305Z,99.99
2023-09-26T06:50:44.173Z,99.99
2023-09-26T06:51:44.264Z,99.99
2023-09-26T06:52:44.130Z,99.99
2023-09-26T06:53:44.239Z,99.99
2023-09-26T06:54:44.146Z,99.99
2023-09-26T06:55:44.168Z,99.99
2023-09-26T06:56:44.216Z,99.99
2023-09-26T06:57:44.241Z,99.99
2023-09-26T06:58:44.245Z,99.99
2023-09-26T06:59:44.189Z,99.99
2023-09-26T07:00:44.089Z,99.99
2023-09-26T07:01:44.156Z,99.99
2023-09-26T07:02:44.105Z,99.99
2023-09-26T07:03:44.137Z,99.99
2023-09-26T07:04:44.308Z,99.99
2023-09-26T07:05:44.109Z,99.99
2023-09-26T07:06:44.029Z,99.99
2023-09-26T07:07:43.972Z,99.99
2023-09-26T07:08:44.048Z,99.99
2023-09-26T07:09:44.186Z,99.99
2023-09-26T07:10:43.938Z,99.99
2023-09-26T07:11:43.911Z,99.99
2023-09-26T07:12:43.941Z,99.99
2023-09-26T07:13:49.101Z,99.99
2023-09-26T07:14:44.918Z,99.99
2023-09-26T07:15:43.909Z,99.99
2023-09-26T07:16:44.053Z,99.99
2023-09-26T07:17:46.210Z,99.99
2023-09-26T07:18:43.905Z,99.99
2023-09-26T07:19:43.818Z,99.99
2023-09-26T07:20:43.831Z,99.99
2023-09-26T07:21:43.922Z,99.99
2023-09-26T07:22:43.723Z,99.99
2023-09-26T07:23:43.831Z,99.99
2023-09-26T07:24:49.999Z,99.99
2023-09-26T07:25:44.719Z,99.99
2023-09-26T07:26:43.710Z,99.99
2023-09-26T07:27:46.347Z,99.99
2023-09-26T07:28:43.888Z,99.99
2023-09-26T07:29:43.819Z,99.99
2023-09-26T07:30:43.756Z,99.99
2023-09-26T07:31:43.743Z,99.99
2023-09-26T07:32:43.783Z,99.99
2023-09-26T07:33:43.754Z,99.99
2023-09-26T07:34:43.680Z,99.99
2023-09-26T07:35:43.612Z,99.99
2023-09-26T07:36:43.679Z,99.99
2023-09-26T07:37:43.742Z,99.99
2023-09-26T07:38:43.618Z,99.99
2023-09-26T07:39:43.614Z,99.99
2023-09-26T07:40:43.676Z,99.99
2023-09-26T07:41:43.656Z,99.99
2023-09-26T07:42:43.587Z,99.99
2023-09-26T07:43:43.590Z,99.99
2023-09-26T07:44:43.524Z,99.99
2023-09-26T07:45:43.678Z,99.99
2023-09-26T07:46:43.554Z,99.99
2023-09-26T07:47:43.687Z,99.99
2023-09-26T07:48:43.501Z,99.99
2023-09-26T07:49:43.472Z,99.99
2023-09-26T07:50:43.489Z,99.99
2023-09-26T07:51:43.429Z,99.99
2023-09-26T07:52:43.424Z,99.99
2023-09-26T07:53:43.343Z,99.99
2023-09-26T07:54:43.423Z,99.99
2023-09-26T07:55:43.510Z,99.99
2023-09-26T07:56:43.330Z,99.99
2023-09-26T07:57:43.322Z,99.99
2023-09-26T07:58:43.300Z,99.99
2023-09-26T07:59:43.438Z,99.99
2023-09-26T08:00:43.545Z,99.99
2023-09-26T08:01:43.348Z,99.99
2023-09-26T08:02:43.359Z,99.99
2023-09-26T08:03:43.405Z,99.99
2023-09-26T08:04:43.235Z,99.99
2023-09-26T08:05:43.269Z,99.99
2023-09-26T08:06:43.183Z,99.99
2023-09-26T08:07:43.236Z,99.99
2023-09-26T08:08:43.141Z,99.99
2023-09-26T08:09:43.297Z,99.99
2023-09-26T08:10:43.212Z,99.99
2023-09-26T08:11:43.154Z,99.99
2023-09-26T08:12:43.408Z,99.99
2023-09-26T08:13:43.216Z,99.99
2023-09-26T08:14:43.088Z,99.99
2023-09-26T08:15:43.197Z,99.99
2023-09-26T08:16:43.239Z,99.99
2023-09-26T08:17:43.164Z,99.99
2023-09-26T08:18:43.223Z,99.99
2023-09-26T08:19:43.002Z,99.99
2023-09-26T08:20:43.059Z,99.99
2023-09-26T08:21:42.981Z,99.99
2023-09-26T08:22:43.135Z,99.99
2023-09-26T08:23:43.153Z,99.99
2023-09-26T08:24:43.105Z,99.99
2023-09-26T08:25:42.954Z,99.99
2023-09-26T08:26:42.897Z,99.99
2023-09-26T08:27:43.027Z,99.99
2023-09-26T08:28:42.921Z,99.99
2023-09-26T08:29:43.143Z,99.99
2023-09-26T08:30:42.937Z,99.99
2023-09-26T08:31:42.915Z,99.99
2023-09-26T08:32:43.001Z,99.99
2023-09-26T08:33:42.918Z,99.99
2023-09-26T08:34:42.798Z,99.99
2023-09-26T08:35:42.883Z,99.99
2023-09-26T08:36:42.836Z,99.99
2023-09-26T08:37:42.833Z,99.99
2023-09-26T08:38:42.769Z,99.99
2023-09-26T08:39:42.758Z,99.99
2023-09-26T08:40:42.786Z,99.99
2023-09-26T08:41:42.752Z,99.99
2023-09-26T08:42:42.758Z,99.99
2023-09-26T08:43:42.805Z,99.99
2023-09-26T08:44:42.678Z,99.99
2023-09-26T08:45:42.713Z,99.99
2023-09-26T08:46:42.891Z,99.99
2023-09-26T08:47:42.739Z,99.99
2023-09-26T08:48:42.693Z,99.99
2023-09-26T08:49:42.719Z,99.99
2023-09-26T08:50:42.605Z,99.99
2023-09-26T08:51:42.588Z,99.99
2023-09-26T08:52:42.611Z,99.99
2023-09-26T08:53:42.633Z,99.99
2023-09-26T08:54:42.544Z,99.99
2023-09-26T08:55:42.580Z,99.99
2023-09-26T08:56:44.542Z,99.99
2023-09-26T08:57:42.522Z,99.99
2023-09-26T08:58:42.609Z,99.99
2023-09-26T08:59:42.562Z,99.99
2023-09-26T09:00:42.507Z,99.99
2023-09-26T09:01:42.586Z,99.99
2023-09-26T09:02:42.580Z,99.99
2023-09-26T09:03:42.624Z,99.99
2023-09-26T09:04:42.579Z,99.99
2023-09-26T09:05:42.605Z,99.99
2023-09-26T09:06:42.654Z,99.99
2023-09-26T09:07:43.166Z,99.99
2023-09-26T09:08:42.685Z,99.99
2023-09-26T09:09:42.762Z,99.99
2023-09-26T09:10:44.096Z,99.99
2023-09-26T09:11:42.657Z,99.99
2023-09-26T09:12:42.486Z,99.99
2023-09-26T09:13:42.325Z,99.99
2023-09-26T09:14:42.360Z,99.99
2023-09-26T09:15:42.319Z,99.99
2023-09-26T09:16:42.529Z,99.99
2023-09-26T09:17:42.393Z,99.99
2023-09-26T09:18:42.763Z,99.99
2023-09-26T09:19:42.413Z,99.99
2023-09-26T09:20:42.429Z,99.99
2023-09-26T09:21:42.221Z,99.99
2023-09-26T09:22:42.308Z,99.99
2023-09-26T09:23:42.397Z,99.99
2023-09-26T09:24:42.337Z,99.99
2023-09-26T09:25:42.171Z,99.99
2023-09-26T09:26:42.170Z,99.99
2023-09-26T09:27:42.142Z,99.99
2023-09-26T09:28:42.171Z,99.99
2023-09-26T09:29:42.119Z,99.99
2023-09-26T09:30:42.260Z,99.99
2023-09-26T09:31:42.154Z,99.99
2023-09-26T09:32:42.203Z,99.99
2023-09-26T09:33:42.065Z,99.99
2023-09-26T09:34:42.041Z,99.99
2023-09-26T09:35:42.221Z,99.99
2023-09-26T09:36:42.006Z,99.99
2023-09-26T09:37:42.115Z,99.99
2023-09-26T09:38:42.006Z,99.99
2023-09-26T09:39:42.048Z,99.99
2023-09-26T09:40:41.961Z,99.99
2023-09-26T09:41:42.112Z,99.99
2023-09-26T09:42:41.954Z,99.99
2023-09-26T09:43:42.063Z,99.99
2023-09-26T09:44:41.975Z,99.99
2023-09-26T09:45:42.035Z,99.99
2023-09-26T09:46:42.168Z,99.99
2023-09-26T09:47:41.879Z,99.99
2023-09-26T09:48:41.914Z,99.99
2023-09-26T09:49:41.881Z,99.99
2023-09-26T09:50:41.862Z,99.99
2023-09-26T09:51:41.812Z,99.99
2023-09-26T09:52:41.874Z,99.99
2023-09-26T09:53:41.814Z,99.99
2023-09-26T09:54:41.791Z,99.99
2023-09-26T09:55:41.796Z,99.99
2023-09-26T09:56:41.826Z,99.99
2023-09-26T09:57:41.739Z,99.99
2023-09-26T09:58:41.881Z,99.99
2023-09-26T09:59:41.739Z,99.99
2023-09-26T10:00:42.002Z,99.99
2023-09-26T10:01:41.775Z,99.99
2023-09-26T10:02:41.749Z,99.99
2023-09-26T10:03:41.794Z,99.99
2023-09-26T10:04:41.707Z,99.99
2023-09-26T10:05:41.670Z,99.99
2023-09-26T10:06:41.670Z,99.99
2023-09-26T10:07:41.661Z,99.99
2023-09-26T10:08:41.665Z,99.99
2023-09-26T10:09:41.578Z,99.99
2023-09-26T10:10:41.595Z,99.99
2023-09-26T10:11:41.590Z,99.99
2023-09-26T10:12:50.947Z,99.99
2023-09-26T10:13:42.607Z,99.99
2023-09-26T10:14:41.566Z,99.99
2023-09-26T10:15:41.553Z,99.99
2023-09-26T10:16:41.610Z,99.99
2023-09-26T10:17:41.697Z,99.96
2023-09-26T10:18:41.492Z,99.86
2023-09-26T10:19:57.899Z,99.76
2023-09-26T10:20:52.546Z,99.55
2023-09-26T10:21:42.515Z,99.51
2023-09-26T10:22:41.485Z,99.51
2023-09-26T10:23:41.399Z,99.51
2023-09-26T10:24:41.418Z,99.61
2023-09-26T10:25:41.421Z,99.71
2023-09-26T10:26:41.438Z,99.61
2023-09-26T10:27:56.160Z,99.51
2023-09-26T10:28:42.408Z,99.26
2023-09-26T10:29:41.359Z,99.05
2023-09-26T10:30:41.402Z,98.85
2023-09-26T10:31:41.549Z,98.35
2023-09-26T10:32:41.394Z,98.14
2023-09-26T10:33:41.288Z,97.94
2023-09-26T10:35:42.374Z,97.34
2023-09-26T10:36:41.353Z,97.29
2023-09-26T10:37:41.280Z,97.29
2023-09-26T10:38:41.276Z,97.19
2023-09-26T10:39:41.243Z,96.89
2023-09-26T10:40:41.308Z,96.28
2023-09-26T10:42:00.771Z,95.98
2023-09-26T10:43:46.845Z,94.86
2023-09-26T10:44:42.195Z,94.06
2023-09-26T10:45:41.190Z,94.31
2023-09-26T10:46:41.329Z,94.42
2023-09-26T10:47:41.171Z,94.62
2023-09-26T10:48:41.328Z,95.12
2023-09-26T10:49:41.157Z,95.53
2023-09-26T10:50:41.133Z,95.78
2023-09-26T10:51:41.064Z,95.58
2023-09-26T10:53:42.109Z,95.07
2023-09-26T10:54:41.165Z,94.67
2023-09-26T10:55:41.121Z,94.37
2023-09-26T10:56:41.036Z,94.57
2023-09-26T10:57:40.983Z,94.67
2023-09-26T10:58:41.321Z,94.73
2023-09-26T10:59:41.064Z,94.53
2023-09-26T11:00:41.130Z,93.12
2023-09-26T11:01:41.078Z,91.19
2023-09-26T11:02:41.123Z,91.39
2023-09-26T11:03:41.520Z,91.80
2023-09-26T11:04:41.451Z,92.50
2023-09-26T11:05:41.452Z,92.91
2023-09-26T11:06:41.496Z,92.57
2023-09-26T11:07:41.118Z,92.26
2023-09-26T11:08:41.145Z,92.16
2023-09-26T11:09:40.879Z,91.05
2023-09-26T11:10:41.030Z,91.35
2023-09-26T11:11:40.820Z,91.66
2023-09-26T11:12:40.830Z,89.13
2023-09-26T11:13:40.906Z,89.54
2023-09-26T11:14:40.823Z,89.94
2023-09-26T11:15:40.825Z,90.10
2023-09-26T11:16:40.739Z,90.50
2023-09-26T11:17:40.849Z,90.91
2023-09-26T11:18:40.973Z,91.21
2023-09-26T11:19:40.780Z,90.70
2023-09-26T11:20:50.528Z,90.50
2023-09-26T11:21:41.787Z,89.79
2023-09-26T11:22:40.796Z,89.59
2023-09-26T11:23:41.166Z,88.79
2023-09-26T11:24:40.667Z,89.59
2023-09-26T11:25:40.679Z,89.55
2023-09-26T11:26:40.612Z,89.25
2023-09-26T11:27:40.610Z,89.45
2023-09-26T11:28:40.627Z,90.56
2023-09-26T11:29:40.681Z,91.06
2023-09-26T11:30:40.593Z,90.66
2023-09-26T11:31:40.762Z,90.16
2023-09-26T11:32:40.718Z,90.66
2023-09-26T11:33:40.752Z,90.06
2023-09-26T11:34:40.563Z,89.75
2023-09-26T11:35:40.521Z,89.65
2023-09-26T11:36:40.734Z,88.65
2023-09-26T11:37:40.569Z,88.45
2023-09-26T11:38:40.475Z,88.40
2023-09-26T11:39:40.534Z,88.70
2023-09-26T11:40:40.628Z,88.81
2023-09-26T11:41:49.336Z,88.00
2023-09-26T11:42:41.396Z,87.40
2023-09-26T11:43:40.578Z,87.40
2023-09-26T11:44:40.394Z,88.20
2023-09-26T11:45:40.424Z,89.01
2023-09-26T11:46:40.507Z,89.01
2023-09-26T11:47:40.379Z,88.00
2023-09-26T11:48:40.646Z,88.26
2023-09-26T11:49:40.412Z,88.36
2023-09-26T11:50:40.496Z,87.76
2023-09-26T11:51:40.316Z,87.76
2023-09-26T11:52:40.347Z,88.16
2023-09-26T11:53:40.263Z,88.76
2023-09-26T11:54:40.278Z,89.37
2023-09-26T11:55:40.327Z,88.66
2023-09-26T11:56:40.268Z,87.25
2023-09-26T11:57:40.221Z,86.21
2023-09-26T11:58:40.222Z,87.41
2023-09-26T11:59:40.211Z,88.02
2023-09-26T12:00:40.293Z,88.12
2023-09-26T12:01:40.312Z,88.42
2023-09-26T12:02:40.288Z,88.92
2023-09-26T12:03:40.217Z,87.62
2023-09-26T12:04:40.269Z,85.60
2023-09-26T12:05:40.122Z,84.85
2023-09-26T12:06:40.130Z,85.05
2023-09-26T12:07:40.158Z,85.56
2023-09-26T12:08:40.109Z,84.85
2023-09-26T12:09:40.075Z,85.96
2023-09-26T12:10:43.995Z,87.07
2023-09-26T12:11:40.109Z,86.66
2023-09-26T12:12:40.039Z,87.57
2023-09-26T12:13:40.069Z,87.83
2023-09-26T12:14:40.017Z,87.43
2023-09-26T12:15:40.031Z,87.33
2023-09-26T12:16:40.098Z,87.63
2023-09-26T12:17:40.185Z,87.83
2023-09-26T12:18:40.017Z,87.02
2023-09-26T12:19:39.998Z,83.81
2023-09-26T12:20:39.988Z,85.02
2023-09-26T12:21:40.010Z,86.72
2023-09-26T12:22:39.980Z,87.69
2023-09-26T12:23:39.870Z,88.29
2023-09-26T12:24:39.889Z,88.29
2023-09-26T12:25:39.891Z,86.68
2023-09-26T12:26:39.852Z,85.17
2023-09-26T12:27:39.851Z,84.88
2023-09-26T12:28:39.997Z,84.77
2023-09-26T12:29:39.847Z,79.44
2023-09-26T12:30:39.797Z,78.34
2023-09-26T12:31:39.982Z,78.34
2023-09-26T12:32:39.897Z,81.65
2023-09-26T12:33:39.773Z,80.05
2023-09-26T12:34:39.823Z,78.30
2023-09-26T12:35:39.796Z,79.21
2023-09-26T12:36:39.702Z,79.41
2023-09-26T12:37:39.767Z,81.62
2023-09-26T12:38:39.681Z,80.01
2023-09-26T12:39:39.779Z,79.91
2023-09-26T12:40:39.692Z,81.18
2023-09-26T12:41:39.718Z,77.96
2023-09-26T12:42:39.730Z,79.87
2023-09-26T12:43:39.641Z,80.37
2023-09-26T12:44:39.624Z,82.08
2023-09-26T12:45:39.653Z,77.46
2023-09-26T12:46:39.702Z,77.86
2023-09-26T12:47:39.761Z,78.12
2023-09-26T12:48:39.580Z,81.34
2023-09-26T12:49:41.141Z,76.32
2023-09-26T12:50:39.654Z,78.63
2023-09-26T12:51:39.539Z,80.33
2023-09-26T12:52:39.646Z,81.00
2023-09-26T12:53:39.495Z,77.79
2023-09-26T12:54:39.627Z,77.69
2023-09-26T12:55:39.534Z,80.50